sensor_id;sensor_type;location;lat;lon;timestamp;temperature;humidity
22607;DHT22;11470;20.968;105.834;2023-05-01T00:02:56;24.30;99.90
22607;DHT22;11470;20.968;105.834;2023-05-01T00:08:01;24.30;99.90
22607;DHT22;11470;20.968;105.834;2023-05-01T00:13:07;24.40;99.90
22607;DHT22;11470;20.968;105.834;2023-05-01T00:18:13;24.50;99.90
22607;DHT22;11470;20.968;105.834;2023-05-01T00:23:19;24.70;99.90
22607;DHT22;11470;20.968;105.834;2023-05-01T00:28:25;25.20;99.90
22607;DHT22;11470;20.968;105.834;2023-05-01T00:33:30;25.50;99.90
22607;DHT22;11470;20.968;105.834;2023-05-01T00:38:36;25.90;99.90
22607;DHT22;11470;20.968;105.834;2023-05-01T00:43:42;26.20;99.90
22607;DHT22;11470;20.968;105.834;2023-05-01T00:48:47;26.30;99.90
22607;DHT22;11470;20.968;105.834;2023-05-01T00:53:54;26.30;99.90
22607;DHT22;11470;20.968;105.834;2023-05-01T00:59:00;26.10;99.90
22607;DHT22;11470;20.968;105.834;2023-05-01T01:04:05;26.40;99.90
22607;DHT22;11470;20.968;105.834;2023-05-01T01:20:33;27.00;99.90
22607;DHT22;11470;20.968;105.834;2023-05-01T01:26:01;27.60;99.90
22607;DHT22;11470;20.968;105.834;2023-05-01T01:31:31;28.00;99.90
22607;DHT22;11470;20.968;105.834;2023-05-01T01:36:42;28.30;99.90
22607;DHT22;11470;20.968;105.834;2023-05-01T01:41:52;28.60;99.90
22607;DHT22;11470;20.968;105.834;2023-05-01T01:47:01;28.90;98.30
22607;DHT22;11470;20.968;105.834;2023-05-01T01:52:11;29.00;97.40
22607;DHT22;11470;20.968;105.834;2023-05-01T01:57:20;29.20;99.70
22607;DHT22;11470;20.968;105.834;2023-05-01T02:02:28;29.50;95.80
22607;DHT22;11470;20.968;105.834;2023-05-01T02:07:38;29.80;97.90
22607;DHT22;11470;20.968;105.834;2023-05-01T02:13:01;29.90;94.10
22607;DHT22;11470;20.968;105.834;2023-05-01T02:18:08;30.10;95.20
22607;DHT22;11470;20.968;105.834;2023-05-01T02:23:13;30.70;95.60
22607;DHT22;11470;20.968;105.834;2023-05-01T02:28:23;30.80;95.90
22607;DHT22;11470;20.968;105.834;2023-05-01T02:33:28;30.60;91.80
22607;DHT22;11470;20.968;105.834;2023-05-01T02:38:34;30.60;92.30
22607;DHT22;11470;20.968;105.834;2023-05-01T02:43:41;30.60;92.00
22607;DHT22;11470;20.968;105.834;2023-05-01T02:48:49;30.80;93.90
22607;DHT22;11470;20.968;105.834;2023-05-01T02:53:55;30.80;86.00
22607;DHT22;11470;20.968;105.834;2023-05-01T02:59:10;30.90;93.70
22607;DHT22;11470;20.968;105.834;2023-05-01T03:04:15;31.20;94.10
22607;DHT22;11470;20.968;105.834;2023-05-01T03:09:24;31.70;93.20
22607;DHT22;11470;20.968;105.834;2023-05-01T03:14:30;32.40;81.70
22607;DHT22;11470;20.968;105.834;2023-05-01T03:19:35;31.90;88.10
22607;DHT22;11470;20.968;105.834;2023-05-01T03:24:47;31.40;90.80
22607;DHT22;11470;20.968;105.834;2023-05-01T03:29:56;31.00;92.00
22607;DHT22;11470;20.968;105.834;2023-05-01T03:35:13;31.70;84.20
22607;DHT22;11470;20.968;105.834;2023-05-01T03:46:32;31.40;89.70
22607;DHT22;11470;20.968;105.834;2023-05-01T03:51:40;31.40;90.00
22607;DHT22;11470;20.968;105.834;2023-05-01T03:56:46;31.90;87.80
22607;DHT22;11470;20.968;105.834;2023-05-01T04:01:57;32.40;85.00
22607;DHT22;11470;20.968;105.834;2023-05-01T04:07:05;32.30;80.30
22607;DHT22;11470;20.968;105.834;2023-05-01T04:12:10;33.10;84.60
22607;DHT22;11470;20.968;105.834;2023-05-01T04:17:17;33.00;81.70
22607;DHT22;11470;20.968;105.834;2023-05-01T04:22:22;33.80;79.00
22607;DHT22;11470;20.968;105.834;2023-05-01T04:27:35;33.30;79.60
22607;DHT22;11470;20.968;105.834;2023-05-01T04:33:07;33.60;77.50
22607;DHT22;11470;20.968;105.834;2023-05-01T04:38:16;32.90;77.40
22607;DHT22;11470;20.968;105.834;2023-05-01T04:43:22;32.60;78.70
22607;DHT22;11470;20.968;105.834;2023-05-01T04:48:28;32.70;77.60
22607;DHT22;11470;20.968;105.834;2023-05-01T04:53:33;32.50;78.10
22607;DHT22;11470;20.968;105.834;2023-05-01T04:58:51;32.80;79.30
22607;DHT22;11470;20.968;105.834;2023-05-01T05:03:59;33.70;76.70
22607;DHT22;11470;20.968;105.834;2023-05-01T05:09:05;34.30;77.00
22607;DHT22;11470;20.968;105.834;2023-05-01T05:14:10;35.20;72.90
22607;DHT22;11470;20.968;105.834;2023-05-01T05:19:17;36.50;66.40
22607;DHT22;11470;20.968;105.834;2023-05-01T05:24:22;35.50;69.40
22607;DHT22;11470;20.968;105.834;2023-05-01T05:29:30;35.50;68.70
22607;DHT22;11470;20.968;105.834;2023-05-01T05:34:37;35.10;69.30
22607;DHT22;11470;20.968;105.834;2023-05-01T05:39:43;35.20;69.00
22607;DHT22;11470;20.968;105.834;2023-05-01T05:44:48;35.50;67.60
22607;DHT22;11470;20.968;105.834;2023-05-01T05:49:53;35.30;68.60
22607;DHT22;11470;20.968;105.834;2023-05-01T05:55:01;36.50;65.50
22607;DHT22;11470;20.968;105.834;2023-05-01T06:00:11;34.90;68.10
22607;DHT22;11470;20.968;105.834;2023-05-01T06:05:23;34.60;70.00
22607;DHT22;11470;20.968;105.834;2023-05-01T06:10:29;34.40;70.50
22607;DHT22;11470;20.968;105.834;2023-05-01T06:15:36;33.10;74.00
22607;DHT22;11470;20.968;105.834;2023-05-01T06:20:50;33.60;73.70
22607;DHT22;11470;20.968;105.834;2023-05-01T06:25:56;34.80;69.20
22607;DHT22;11470;20.968;105.834;2023-05-01T06:31:05;35.70;66.40
22607;DHT22;11470;20.968;105.834;2023-05-01T06:36:16;34.80;67.50
22607;DHT22;11470;20.968;105.834;2023-05-01T06:41:25;34.90;68.20
22607;DHT22;11470;20.968;105.834;2023-05-01T06:46:31;35.90;65.80
22607;DHT22;11470;20.968;105.834;2023-05-01T06:51:38;38.00;63.80
22607;DHT22;11470;20.968;105.834;2023-05-01T06:56:43;39.70;58.80
22607;DHT22;11470;20.968;105.834;2023-05-01T07:01:49;38.60;57.90
22607;DHT22;11470;20.968;105.834;2023-05-01T07:06:58;38.20;58.60
22607;DHT22;11470;20.968;105.834;2023-05-01T07:12:06;36.30;62.70
22607;DHT22;11470;20.968;105.834;2023-05-01T07:17:11;35.70;64.00
22607;DHT22;11470;20.968;105.834;2023-05-01T07:22:21;35.70;64.10
22607;DHT22;11470;20.968;105.834;2023-05-01T07:27:29;35.00;66.10
22607;DHT22;11470;20.968;105.834;2023-05-01T07:32:40;36.10;63.20
22607;DHT22;11470;20.968;105.834;2023-05-01T07:38:04;36.70;61.10
22607;DHT22;11470;20.968;105.834;2023-05-01T07:43:16;36.70;61.40
22607;DHT22;11470;20.968;105.834;2023-05-01T07:48:22;36.80;61.20
22607;DHT22;11470;20.968;105.834;2023-05-01T07:53:38;36.70;62.10
22607;DHT22;11470;20.968;105.834;2023-05-01T07:58:46;38.30;58.10
22607;DHT22;11470;20.968;105.834;2023-05-01T08:03:54;39.00;59.40
22607;DHT22;11470;20.968;105.834;2023-05-01T08:09:00;37.60;59.70
22607;DHT22;11470;20.968;105.834;2023-05-01T08:14:05;35.90;63.60
22607;DHT22;11470;20.968;105.834;2023-05-01T08:19:11;35.10;65.80
22607;DHT22;11470;20.968;105.834;2023-05-01T08:24:17;33.70;70.20
22607;DHT22;11470;20.968;105.834;2023-05-01T08:29:23;33.60;72.30
22607;DHT22;11470;20.968;105.834;2023-05-01T08:34:28;33.20;73.50
22607;DHT22;11470;20.968;105.834;2023-05-01T08:39:34;33.00;75.00
22607;DHT22;11470;20.968;105.834;2023-05-01T08:44:40;32.40;76.10
22607;DHT22;11470;20.968;105.834;2023-05-01T08:49:47;32.20;76.70
22607;DHT22;11470;20.968;105.834;2023-05-01T08:54:55;32.00;78.40
22607;DHT22;11470;20.968;105.834;2023-05-01T09:00:03;32.00;79.40
22607;DHT22;11470;20.968;105.834;2023-05-01T09:05:10;32.10;79.70
22607;DHT22;11470;20.968;105.834;2023-05-01T09:10:17;31.80;80.60
22607;DHT22;11470;20.968;105.834;2023-05-01T09:15:26;31.70;81.60
22607;DHT22;11470;20.968;105.834;2023-05-01T09:20:33;31.70;82.50
22607;DHT22;11470;20.968;105.834;2023-05-01T09:25:41;31.50;83.70
22607;DHT22;11470;20.968;105.834;2023-05-01T09:30:48;31.30;85.30
22607;DHT22;11470;20.968;105.834;2023-05-01T09:35:54;31.20;86.10
22607;DHT22;11470;20.968;105.834;2023-05-01T09:41:04;31.10;87.20
22607;DHT22;11470;20.968;105.834;2023-05-01T09:46:10;30.80;88.60
22607;DHT22;11470;20.968;105.834;2023-05-01T09:56:31;30.60;86.40
22607;DHT22;11470;20.968;105.834;2023-05-01T10:01:44;30.50;90.50
22607;DHT22;11470;20.968;105.834;2023-05-01T10:06:53;30.40;91.20
22607;DHT22;11470;20.968;105.834;2023-05-01T10:12:01;30.20;90.80
22607;DHT22;11470;20.968;105.834;2023-05-01T10:17:16;30.00;92.20
22607;DHT22;11470;20.968;105.834;2023-05-01T10:22:23;29.80;92.90
22607;DHT22;11470;20.968;105.834;2023-05-01T10:27:30;29.60;93.50
22607;DHT22;11470;20.968;105.834;2023-05-01T10:32:37;29.40;94.10
22607;DHT22;11470;20.968;105.834;2023-05-01T10:38:00;29.20;93.90
22607;DHT22;11470;20.968;105.834;2023-05-01T10:43:18;29.00;96.40
22607;DHT22;11470;20.968;105.834;2023-05-01T10:53:44;28.70;98.10
22607;DHT22;11470;20.968;105.834;2023-05-01T10:58:56;28.50;99.30
22607;DHT22;11470;20.968;105.834;2023-05-01T11:04:03;28.50;99.90
22607;DHT22;11470;20.968;105.834;2023-05-01T11:25:41;28.00;99.90
22607;DHT22;11470;20.968;105.834;2023-05-01T11:30:46;27.80;99.90
22607;DHT22;11470;20.968;105.834;2023-05-01T11:35:55;27.60;99.90
22607;DHT22;11470;20.968;105.834;2023-05-01T11:41:03;27.50;99.90
22607;DHT22;11470;20.968;105.834;2023-05-01T11:46:12;27.40;99.90
22607;DHT22;11470;20.968;105.834;2023-05-01T11:51:18;27.20;99.90
22607;DHT22;11470;20.968;105.834;2023-05-01T11:56:23;27.00;99.90
22607;DHT22;11470;20.968;105.834;2023-05-01T12:01:38;26.90;99.90
22607;DHT22;11470;20.968;105.834;2023-05-01T12:06:44;27.00;99.90
22607;DHT22;11470;20.968;105.834;2023-05-01T12:11:51;26.90;99.90
22607;DHT22;11470;20.968;105.834;2023-05-01T12:16:57;26.80;99.90
22607;DHT22;11470;20.968;105.834;2023-05-01T12:22:07;26.80;99.90
22607;DHT22;11470;20.968;105.834;2023-05-01T12:27:13;26.90;99.90
22607;DHT22;11470;20.968;105.834;2023-05-01T12:32:32;26.80;99.90
22607;DHT22;11470;20.968;105.834;2023-05-01T12:37:40;26.70;99.90
22607;DHT22;11470;20.968;105.834;2023-05-01T12:42:52;26.60;99.90
22607;DHT22;11470;20.968;105.834;2023-05-01T12:48:17;26.50;99.90
22607;DHT22;11470;20.968;105.834;2023-05-01T12:54:02;26.30;99.90
22607;DHT22;11470;20.968;105.834;2023-05-01T13:05:08;26.10;99.90
22607;DHT22;11470;20.968;105.834;2023-05-01T13:10:14;25.90;99.90
22607;DHT22;11470;20.968;105.834;2023-05-01T13:15:33;26.00;99.90
22607;DHT22;11470;20.968;105.834;2023-05-01T13:20:41;25.90;99.90
22607;DHT22;11470;20.968;105.834;2023-05-01T13:26:39;25.70;99.90
22607;DHT22;11470;20.968;105.834;2023-05-01T13:31:26;25.70;99.90
22607;DHT22;11470;20.968;105.834;2023-05-01T13:36:32;25.70;99.90
22607;DHT22;11470;20.968;105.834;2023-05-01T13:41:45;25.70;99.90
22607;DHT22;11470;20.968;105.834;2023-05-01T13:46:57;25.90;99.90
22607;DHT22;11470;20.968;105.834;2023-05-01T13:52:05;25.80;99.90
22607;DHT22;11470;20.968;105.834;2023-05-01T13:57:10;25.80;99.90
22607;DHT22;11470;20.968;105.834;2023-05-01T14:02:20;25.60;99.90
22607;DHT22;11470;20.968;105.834;2023-05-01T14:07:29;25.60;99.90
22607;DHT22;11470;20.968;105.834;2023-05-01T14:12:38;25.40;99.90
22607;DHT22;11470;20.968;105.834;2023-05-01T14:17:46;25.10;99.90
22607;DHT22;11470;20.968;105.834;2023-05-01T14:22:52;25.10;99.90
22607;DHT22;11470;20.968;105.834;2023-05-01T14:28:00;25.10;99.90
22607;DHT22;11470;20.968;105.834;2023-05-01T14:33:18;25.30;99.90
22607;DHT22;11470;20.968;105.834;2023-05-01T14:38:24;25.30;99.90
22607;DHT22;11470;20.968;105.834;2023-05-01T14:43:32;25.10;99.90
22607;DHT22;11470;20.968;105.834;2023-05-01T14:48:40;25.00;99.90
22607;DHT22;11470;20.968;105.834;2023-05-01T14:53:46;25.10;99.90
22607;DHT22;11470;20.968;105.834;2023-05-01T14:58:51;25.10;99.90
22607;DHT22;11470;20.968;105.834;2023-05-01T15:03:57;25.10;99.90
22607;DHT22;11470;20.968;105.834;2023-05-01T15:09:08;25.00;99.90
22607;DHT22;11470;20.968;105.834;2023-05-01T15:14:14;25.20;99.90
22607;DHT22;11470;20.968;105.834;2023-05-01T15:19:22;25.00;99.90
22607;DHT22;11470;20.968;105.834;2023-05-01T15:24:28;24.70;99.90
22607;DHT22;11470;20.968;105.834;2023-05-01T15:29:56;24.80;99.90
22607;DHT22;11470;20.968;105.834;2023-05-01T15:35:03;25.00;99.90
22607;DHT22;11470;20.968;105.834;2023-05-01T15:40:09;24.80;99.90
22607;DHT22;11470;20.968;105.834;2023-05-01T15:45:16;24.80;99.90
22607;DHT22;11470;20.968;105.834;2023-05-01T16:01:37;24.40;99.90
22607;DHT22;11470;20.968;105.834;2023-05-01T16:06:47;24.40;99.90
22607;DHT22;11470;20.968;105.834;2023-05-01T16:11:52;24.40;99.90
22607;DHT22;11470;20.968;105.834;2023-05-01T16:16:58;24.70;99.90
22607;DHT22;11470;20.968;105.834;2023-05-01T16:22:04;24.50;99.90
22607;DHT22;11470;20.968;105.834;2023-05-01T16:27:13;24.30;99.90
22607;DHT22;11470;20.968;105.834;2023-05-01T16:32:34;24.30;99.90
22607;DHT22;11470;20.968;105.834;2023-05-01T16:37:40;24.20;99.90
22607;DHT22;11470;20.968;105.834;2023-05-01T16:43:00;24.20;99.90
22607;DHT22;11470;20.968;105.834;2023-05-01T16:48:11;24.20;99.90
22607;DHT22;11470;20.968;105.834;2023-05-01T16:59:30;24.30;99.90
22607;DHT22;11470;20.968;105.834;2023-05-01T17:04:54;24.40;99.90
22607;DHT22;11470;20.968;105.834;2023-05-01T17:10:04;24.50;99.90
22607;DHT22;11470;20.968;105.834;2023-05-01T17:15:13;24.00;99.90
22607;DHT22;11470;20.968;105.834;2023-05-01T17:20:19;24.10;99.90
22607;DHT22;11470;20.968;105.834;2023-05-01T17:25:30;24.40;99.90
22607;DHT22;11470;20.968;105.834;2023-05-01T17:30:35;24.30;99.90
22607;DHT22;11470;20.968;105.834;2023-05-01T17:35:41;24.00;99.90
22607;DHT22;11470;20.968;105.834;2023-05-01T17:40:51;24.00;99.90
22607;DHT22;11470;20.968;105.834;2023-05-01T17:46:00;24.00;99.90
22607;DHT22;11470;20.968;105.834;2023-05-01T17:51:19;24.30;99.90
22607;DHT22;11470;20.968;105.834;2023-05-01T17:56:24;24.20;99.90
22607;DHT22;11470;20.968;105.834;2023-05-01T18:01:31;24.10;99.90
22607;DHT22;11470;20.968;105.834;2023-05-01T18:06:37;23.90;99.90
22607;DHT22;11470;20.968;105.834;2023-05-01T18:11:43;23.60;99.90
22607;DHT22;11470;20.968;105.834;2023-05-01T18:16:48;23.70;99.90
22607;DHT22;11470;20.968;105.834;2023-05-01T18:21:56;23.50;99.90
22607;DHT22;11470;20.968;105.834;2023-05-01T18:27:02;23.70;99.90
22607;DHT22;11470;20.968;105.834;2023-05-01T18:32:08;23.90;99.90
22607;DHT22;11470;20.968;105.834;2023-05-01T18:37:16;24.00;99.90
22607;DHT22;11470;20.968;105.834;2023-05-01T18:42:22;23.90;99.90
22607;DHT22;11470;20.968;105.834;2023-05-01T18:47:27;23.90;99.90
22607;DHT22;11470;20.968;105.834;2023-05-01T18:52:33;23.80;99.90
22607;DHT22;11470;20.968;105.834;2023-05-01T18:57:40;23.70;99.90
22607;DHT22;11470;20.968;105.834;2023-05-01T19:02:47;23.50;99.90
22607;DHT22;11470;20.968;105.834;2023-05-01T19:07:55;23.30;99.90
22607;DHT22;11470;20.968;105.834;2023-05-01T19:13:05;23.20;99.90
22607;DHT22;11470;20.968;105.834;2023-05-01T19:18:10;23.10;99.90
22607;DHT22;11470;20.968;105.834;2023-05-01T19:23:16;23.00;99.90
22607;DHT22;11470;20.968;105.834;2023-05-01T19:28:25;23.00;99.90
22607;DHT22;11470;20.968;105.834;2023-05-01T19:33:31;23.00;99.90
22607;DHT22;11470;20.968;105.834;2023-05-01T19:38:37;23.00;99.90
22607;DHT22;11470;20.968;105.834;2023-05-01T19:43:43;22.90;99.90
22607;DHT22;11470;20.968;105.834;2023-05-01T19:48:49;22.90;99.90
22607;DHT22;11470;20.968;105.834;2023-05-01T19:53:55;22.90;99.90
22607;DHT22;11470;20.968;105.834;2023-05-01T19:59:00;22.80;99.90
22607;DHT22;11470;20.968;105.834;2023-05-01T20:04:06;22.80;99.90
22607;DHT22;11470;20.968;105.834;2023-05-01T20:09:11;22.80;99.90
22607;DHT22;11470;20.968;105.834;2023-05-01T20:14:17;22.80;99.90
22607;DHT22;11470;20.968;105.834;2023-05-01T20:19:22;22.70;99.90
22607;DHT22;11470;20.968;105.834;2023-05-01T20:24:27;22.70;99.90
22607;DHT22;11470;20.968;105.834;2023-05-01T20:29:34;22.80;99.90
22607;DHT22;11470;20.968;105.834;2023-05-01T20:34:40;22.70;99.90
22607;DHT22;11470;20.968;105.834;2023-05-01T20:39:46;22.80;99.90
22607;DHT22;11470;20.968;105.834;2023-05-01T20:44:52;22.70;99.90
22607;DHT22;11470;20.968;105.834;2023-05-01T20:49:57;22.60;99.90
22607;DHT22;11470;20.968;105.834;2023-05-01T20:55:04;22.60;99.90
22607;DHT22;11470;20.968;105.834;2023-05-01T21:00:10;22.50;99.90
22607;DHT22;11470;20.968;105.834;2023-05-01T21:05:16;22.60;99.90
22607;DHT22;11470;20.968;105.834;2023-05-01T21:10:21;22.70;99.90
22607;DHT22;11470;20.968;105.834;2023-05-01T21:15:26;22.70;99.90
22607;DHT22;11470;20.968;105.834;2023-05-01T21:20:35;22.60;99.90
22607;DHT22;11470;20.968;105.834;2023-05-01T21:25:41;22.60;99.90
22607;DHT22;11470;20.968;105.834;2023-05-01T21:30:48;22.70;99.90
22607;DHT22;11470;20.968;105.834;2023-05-01T21:35:53;22.70;99.90
22607;DHT22;11470;20.968;105.834;2023-05-01T21:40:58;22.80;99.90
22607;DHT22;11470;20.968;105.834;2023-05-01T21:46:04;22.80;99.90
22607;DHT22;11470;20.968;105.834;2023-05-01T21:51:11;22.90;99.90
22607;DHT22;11470;20.968;105.834;2023-05-01T21:56:20;23.10;99.90
22607;DHT22;11470;20.968;105.834;2023-05-01T22:01:32;23.20;99.90
22607;DHT22;11470;20.968;105.834;2023-05-01T22:06:37;23.20;99.90
22607;DHT22;11470;20.968;105.834;2023-05-01T22:11:44;23.30;99.90
22607;DHT22;11470;20.968;105.834;2023-05-01T22:16:49;23.30;99.90
22607;DHT22;11470;20.968;105.834;2023-05-01T22:21:54;23.40;99.90
22607;DHT22;11470;20.968;105.834;2023-05-01T22:26:59;23.50;99.90
22607;DHT22;11470;20.968;105.834;2023-05-01T22:32:09;23.50;99.90
22607;DHT22;11470;20.968;105.834;2023-05-01T22:37:15;23.50;99.90
22607;DHT22;11470;20.968;105.834;2023-05-01T22:42:21;23.50;99.90
22607;DHT22;11470;20.968;105.834;2023-05-01T22:47:26;23.50;99.90
22607;DHT22;11470;20.968;105.834;2023-05-01T22:52:32;23.50;99.90
22607;DHT22;11470;20.968;105.834;2023-05-01T22:57:49;23.60;99.90
22607;DHT22;11470;20.968;105.834;2023-05-01T23:03:02;23.60;99.90
22607;DHT22;11470;20.968;105.834;2023-05-01T23:08:12;23.70;99.90
22607;DHT22;11470;20.968;105.834;2023-05-01T23:13:19;23.70;99.90
22607;DHT22;11470;20.968;105.834;2023-05-01T23:18:31;23.70;99.90
22607;DHT22;11470;20.968;105.834;2023-05-01T23:23:40;23.70;99.90
22607;DHT22;11470;20.968;105.834;2023-05-01T23:28:49;23.80;99.90
22607;DHT22;11470;20.968;105.834;2023-05-01T23:34:02;23.80;99.90
22607;DHT22;11470;20.968;105.834;2023-05-01T23:39:14;23.90;99.90
22607;DHT22;11470;20.968;105.834;2023-05-01T23:44:24;23.90;99.90
22607;DHT22;11470;20.968;105.834;2023-05-01T23:49:29;24.00;99.90
22607;DHT22;11470;20.968;105.834;2023-05-01T23:54:35;24.10;99.90
22607;DHT22;11470;20.968;105.834;2023-05-01T23:59:55;24.30;99.90
